Time;durP1;ratioP1;P1;durP2;ratioP2;P2;SDS_P1;SDS_P2;PMS_P1;PMS_P2;Temp;Humidity;BMP_temperature;BMP_pressure;BME280_temperature;BME280_humidity;BME280_pressure;Samples;Min_cycle;Max_cycle;Signal;HPM_P1;HPM_P2
2019/04/20 00:00:50;;;;;;;5.8;4.5;;;;;;;8.12;58.41504;96139.61;;;;
2019/04/20 00:01:53;;;;;;;7.3;4.15;;;;;;;8.08;58.5166;96135.66;;;;
2019/04/20 00:02:54;;;;;;;7.3;4.15;;;;;;;8.08;58.5166;96135.66;;;;
2019/04/20 00:03:55;;;;;;;7.3;4.15;;;;;;;8.08;58.5166;96135.66;;;;
2019/04/20 00:04:56;;;;;;;5.65;4.05;;;;;;;8.03;58.63672;96136.36;;;;
2019/04/20 00:05:57;;;;;;;5.65;4.05;;;;;;;8.03;58.63672;96136.36;;;;
2019/04/20 00:06:58;;;;;;;5.65;4.05;;;;;;;8.03;58.63672;96136.36;;;;
2019/04/20 00:07:59;;;;;;;5.65;4.05;;;;;;;8.03;58.63672;96136.36;;;;
2019/04/20 00:09:00;;;;;;;5.65;4.05;;;;;;;8.03;58.63672;96136.36;;;;
2019/04/20 00:10:02;;;;;;;5.65;4.05;;;;;;;8.03;58.63672;96136.36;;;;
2019/04/20 00:11:03;;;;;;;5.65;4.05;;;;;;;8.03;58.63672;96136.36;;;;
2019/04/20 00:12:04;;;;;;;5.65;4.05;;;;;;;8.03;58.63672;96136.36;;;;
2019/04/20 00:13:05;;;;;;;5.65;4.05;;;;;;;8.03;58.63672;96136.36;;;;
2019/04/20 00:14:07;;;;;;;5.65;4.05;;;;;;;8.03;58.63672;96136.36;;;;
2019/04/20 00:15:08;;;;;;;7.700001;4.349999;;;;;;;7.84;59.3916;96138.44;;;;
2019/04/20 00:16:09;;;;;;;7.700001;4.349999;;;;;;;7.84;59.3916;96138.44;;;;
2019/04/20 00:17:10;;;;;;;7.700001;4.349999;;;;;;;7.84;59.3916;96138.44;;;;
2019/04/20 00:18:11;;;;;;;4.900001;4.400001;;;;;;;7.8;59.48242;96131.37;;;;
2019/04/20 00:19:12;;;;;;;4.900001;4.400001;;;;;;;7.8;59.48242;96131.37;;;;
2019/04/20 00:20:13;;;;;;;5.25;4.55;;;;;;;7.76;59.66797;96135.47;;;;
2019/04/20 00:21:48;;;;;;;5.25;4.55;;;;;;;7.76;59.66797;96135.47;;;;
2019/04/20 00:22:55;;;;;;;5.800001;4.35;;;;;;;7.72;59.76953;96132.89;;;;
2019/04/20 00:23:59;;;;;;;5.800001;4.35;;;;;;;7.72;59.76953;96132.89;;;;
2019/04/20 00:25:12;;;;;;;5.800001;4.35;;;;;;;7.72;59.76953;96132.89;;;;
2019/04/20 00:26:44;;;;;;;6.650001;4.400001;;;;;;;7.68;60.20215;96129.35;;;;
2019/04/20 00:28:16;;;;;;;6.650001;4.400001;;;;;;;7.68;60.20215;96129.35;;;;
2019/04/20 00:29:18;;;;;;;5.150001;4.4;;;;;;;7.67;60.55469;96121.78;;;;
2019/04/20 00:30:19;;;;;;;5.150001;4.4;;;;;;;7.67;60.55469;96121.78;;;;
2019/04/20 00:31:20;;;;;;;4.75;4.25;;;;;;;7.63;60.57031;96117.83;;;;
2019/04/20 00:32:21;;;;;;;4.75;4.25;;;;;;;7.63;60.57031;96117.83;;;;
2019/04/20 00:33:22;;;;;;;4.75;4.25;;;;;;;7.63;60.57031;96117.83;;;;
2019/04/20 00:34:23;;;;;;;5.099999;4.599999;;;;;;;7.59;60.5957;96117.08;;;;
2019/04/20 00:35:24;;;;;;;5.099999;4.599999;;;;;;;7.59;60.5957;96117.08;;;;
2019/04/20 00:36:25;;;;;;;6.249999;4.299999;;;;;;;7.53;60.74609;96116.09;;;;
2019/04/20 00:37:26;;;;;;;6.249999;4.299999;;;;;;;7.53;60.74609;96116.09;;;;
2019/04/20 00:38:27;;;;;;;6.249999;4.299999;;;;;;;7.53;60.74609;96116.09;;;;
2019/04/20 00:39:28;;;;;;;5.8;4.05;;;;;;;7.48;60.84668;96118.44;;;;
2019/04/20 00:40:30;;;;;;;5.8;4.05;;;;;;;7.48;60.84668;96118.44;;;;
2019/04/20 00:41:31;;;;;;;6.299999;4;;;;;;;7.43;60.98926;96112.02;;;;
2019/04/20 00:42:32;;;;;;;6.299999;4;;;;;;;7.43;60.98926;96112.02;;;;
2019/04/20 00:43:33;;;;;;;6.299999;4;;;;;;;7.43;60.98926;96112.02;;;;
2019/04/20 00:44:34;;;;;;;4.699999;4;;;;;;;7.38;61.04688;96117.05;;;;
2019/04/20 00:45:35;;;;;;;4.699999;4;;;;;;;7.38;61.04688;96117.05;;;;
2019/04/20 00:46:36;;;;;;;4.699999;4;;;;;;;7.38;61.04688;96117.05;;;;
2019/04/20 00:47:37;;;;;;;6.400001;4.15;;;;;;;7.33;61.24121;96115.97;;;;
2019/04/20 00:48:38;;;;;;;6.400001;4.15;;;;;;;7.33;61.24121;96115.97;;;;
2019/04/20 00:49:39;;;;;;;6.400001;4.15;;;;;;;7.33;61.24121;96115.97;;;;
2019/04/20 00:50:40;;;;;;;6.400001;4.15;;;;;;;7.33;61.24121;96115.97;;;;
2019/04/20 00:51:41;;;;;;;6.400001;4.15;;;;;;;7.33;61.24121;96115.97;;;;
2019/04/20 00:52:42;;;;;;;6.350001;4.25;;;;;;;7.23;61.45215;96114.14;;;;
2019/04/20 00:53:43;;;;;;;6.350001;4.25;;;;;;;7.23;61.45215;96114.14;;;;
2019/04/20 00:54:45;;;;;;;6.1;4.55;;;;;;;7.18;61.5625;96109.34;;;;
2019/04/20 00:55:46;;;;;;;6.1;4.55;;;;;;;7.18;61.5625;96109.34;;;;
2019/04/20 00:56:47;;;;;;;6.1;4.55;;;;;;;7.18;61.5625;96109.34;;;;
2019/04/20 00:57:48;;;;;;;5.95;4.1;;;;;;;7.14;61.7793;96118;;;;
2019/04/20 00:58:49;;;;;;;5.95;4.1;;;;;;;7.14;61.7793;96118;;;;
2019/04/20 00:59:50;;;;;;;5.95;4.1;;;;;;;7.14;61.7793;96118;;;;
2019/04/20 01:00:51;;;;;;;5.600001;4.400001;;;;;;;7.09;61.93262;96115.45;;;;
2019/04/20 01:01:52;;;;;;;5.600001;4.400001;;;;;;;7.09;61.93262;96115.45;;;;
2019/04/20 01:02:53;;;;;;;5.1;4.45;;;;;;;7.04;62.1709;96116.56;;;;
2019/04/20 01:03:54;;;;;;;5.1;4.45;;;;;;;7.04;62.1709;96116.56;;;;
2019/04/20 01:04:55;;;;;;;5.1;4.45;;;;;;;7.04;62.1709;96116.56;;;;
2019/04/20 01:06:33;;;;;;;6.75;4.849999;;;;;;;7;62.35547;96113.51;;;;
2019/04/20 01:07:51;;;;;;;6.75;4.849999;;;;;;;7;62.35547;96113.51;;;;
2019/04/20 01:08:56;;;;;;;7.349999;4.8;;;;;;;6.96;62.65918;96114.03;;;;
2019/04/20 01:10:03;;;;;;;7.349999;4.8;;;;;;;6.96;62.65918;96114.03;;;;
2019/04/20 01:11:05;;;;;;;6.8;4.649999;;;;;;;6.92;62.85547;96114.51;;;;
2019/04/20 01:12:06;;;;;;;6.8;4.649999;;;;;;;6.92;62.85547;96114.51;;;;
2019/04/20 01:13:07;;;;;;;6.8;4.649999;;;;;;;6.92;62.85547;96114.51;;;;
2019/04/20 01:14:08;;;;;;;6.649999;4.75;;;;;;;6.87;62.9541;96111.55;;;;
2019/04/20 01:15:09;;;;;;;6.649999;4.75;;;;;;;6.87;62.9541;96111.55;;;;
2019/04/20 01:16:10;;;;;;;7.05;4.5;;;;;;;6.83;63.04395;96108.95;;;;
2019/04/20 01:17:11;;;;;;;7.05;4.5;;;;;;;6.83;63.04395;96108.95;;;;
2019/04/20 01:18:13;;;;;;;7.05;4.5;;;;;;;6.83;63.04395;96108.95;;;;
2019/04/20 01:19:14;;;;;;;7.05;4.5;;;;;;;6.83;63.04395;96108.95;;;;
2019/04/20 01:20:15;;;;;;;7.05;4.5;;;;;;;6.83;63.04395;96108.95;;;;
2019/04/20 01:21:16;;;;;;;4.849999;4.149999;;;;;;;6.74;63.31934;96118.58;;;;
2019/04/20 01:22:17;;;;;;;4.849999;4.149999;;;;;;;6.74;63.31934;96118.58;;;;
2019/04/20 01:23:18;;;;;;;4.849999;4.149999;;;;;;;6.74;63.31934;96118.58;;;;
2019/04/20 01:24:19;;;;;;;6.65;4.799999;;;;;;;6.71;63.44141;96117.71;;;;
2019/04/20 01:25:20;;;;;;;6.65;4.799999;;;;;;;6.71;63.44141;96117.71;;;;
2019/04/20 01:26:22;;;;;;;6.65;4.799999;;;;;;;6.71;63.44141;96117.71;;;;
2019/04/20 01:27:23;;;;;;;6.65;4.799999;;;;;;;6.71;63.44141;96117.71;;;;
2019/04/20 01:28:24;;;;;;;6.65;4.799999;;;;;;;6.71;63.44141;96117.71;;;;
2019/04/20 01:29:25;;;;;;;6.6;4.5;;;;;;;6.71;63.40918;96113.69;;;;
2019/04/20 01:30:26;;;;;;;6.6;4.5;;;;;;;6.71;63.40918;96113.69;;;;
2019/04/20 01:31:27;;;;;;;6.6;4.5;;;;;;;6.71;63.40918;96113.69;;;;
2019/04/20 01:32:29;;;;;;;6.65;4.2;;;;;;;6.69;63.15234;96115.61;;;;
2019/04/20 01:33:30;;;;;;;6.65;4.2;;;;;;;6.69;63.15234;96115.61;;;;
2019/04/20 01:34:31;;;;;;;6.65;4.2;;;;;;;6.69;63.15234;96115.61;;;;
2019/04/20 01:35:32;;;;;;;7.45;4.6;;;;;;;6.63;63.20605;96112.45;;;;
2019/04/20 01:36:33;;;;;;;7.45;4.6;;;;;;;6.63;63.20605;96112.45;;;;
2019/04/20 01:37:34;;;;;;;5.8;4.7;;;;;;;6.56;63.27148;96112.82;;;;
2019/04/20 01:38:35;;;;;;;5.8;4.7;;;;;;;6.56;63.27148;96112.82;;;;
2019/04/20 01:39:36;;;;;;;5.8;4.7;;;;;;;6.56;63.27148;96112.82;;;;
2019/04/20 01:40:37;;;;;;;5.299999;4.699999;;;;;;;6.51;63.42285;96113.48;;;;
2019/04/20 01:41:38;;;;;;;5.299999;4.699999;;;;;;;6.51;63.42285;96113.48;;;;
2019/04/20 01:42:40;;;;;;;5.950001;4.849999;;;;;;;6.46;63.49023;96107.42;;;;
2019/04/20 01:43:41;;;;;;;5.950001;4.849999;;;;;;;6.46;63.49023;96107.42;;;;
2019/04/20 01:44:42;;;;;;;5.950001;4.849999;;;;;;;6.46;63.49023;96107.42;;;;
2019/04/20 01:45:43;;;;;;;6.349999;4.75;;;;;;;6.4;63.59863;96116.67;;;;
2019/04/20 01:46:44;;;;;;;6.349999;4.75;;;;;;;6.4;63.59863;96116.67;;;;
2019/04/20 01:47:46;;;;;;;6.349999;4.75;;;;;;;6.4;63.59863;96116.67;;;;
2019/04/20 01:48:47;;;;;;;7.399999;4.6;;;;;;;6.36;63.67676;96112.7;;;;
2019/04/20 01:49:48;;;;;;;7.399999;4.6;;;;;;;6.36;63.67676;96112.7;;;;
2019/04/20 01:50:49;;;;;;;5.5;4.75;;;;;;;6.32;63.82031;96115.01;;;;
2019/04/20 01:51:50;;;;;;;5.5;4.75;;;;;;;6.32;63.82031;96115.01;;;;
2019/04/20 01:52:51;;;;;;;5.5;4.75;;;;;;;6.32;63.82031;96115.01;;;;
2019/04/20 01:53:56;;;;;;;5.75;4.849999;;;;;;;6.29;63.90137;96117.16;;;;
2019/04/20 01:55:06;;;;;;;5.75;4.849999;;;;;;;6.29;63.90137;96117.16;;;;
2019/04/20 01:56:23;;;;;;;5.95;4.9;;;;;;;6.24;64.03125;96113.79;;;;
2019/04/20 01:57:29;;;;;;;5.95;4.9;;;;;;;6.24;64.03125;96113.79;;;;
2019/04/20 01:58:54;;;;;;;6.400001;4.5;;;;;;;6.2;64.0791;96113.84;;;;
2019/04/20 02:00:01;;;;;;;6.400001;4.5;;;;;;;6.2;64.0791;96113.84;;;;
2019/04/20 02:01:15;;;;;;;6.400001;4.5;;;;;;;6.2;64.0791;96113.84;;;;
2019/04/20 02:02:24;;;;;;;7.6;4.75;;;;;;;6.15;64.2002;96113.47;;;;
2019/04/20 02:08:33;;;;;;;8.05;5.2;;;;;;;6.1;64.54102;96113.72;;;;
2019/04/20 02:09:34;;;;;;;5.550001;4.849999;;;;;;;6.07;64.57031;96123.91;;;;
2019/04/20 02:10:35;;;;;;;5.550001;4.849999;;;;;;;6.07;64.57031;96123.91;;;;
2019/04/20 02:11:36;;;;;;;5.550001;4.849999;;;;;;;6.07;64.57031;96123.91;;;;
2019/04/20 02:12:38;;;;;;;6.95;5.199999;;;;;;;6.02;64.66895;96116.02;;;;
2019/04/20 02:13:39;;;;;;;6.95;5.199999;;;;;;;6.02;64.66895;96116.02;;;;
2019/04/20 02:14:40;;;;;;;6.749999;5.2;;;;;;;5.98;64.68359;96120.59;;;;
2019/04/20 02:15:41;;;;;;;6.749999;5.2;;;;;;;5.98;64.68359;96120.59;;;;
2019/04/20 02:16:42;;;;;;;6.749999;5.2;;;;;;;5.98;64.68359;96120.59;;;;
2019/04/20 02:17:43;;;;;;;7.9;5.200001;;;;;;;5.94;64.81445;96125.6;;;;
2019/04/20 02:18:44;;;;;;;7.9;5.200001;;;;;;;5.94;64.81445;96125.6;;;;
2019/04/20 02:19:45;;;;;;;7.9;5.200001;;;;;;;5.94;64.81445;96125.6;;;;
2019/04/20 02:20:46;;;;;;;7.9;5.200001;;;;;;;5.94;64.81445;96125.6;;;;
2019/04/20 02:21:48;;;;;;;7.9;5.200001;;;;;;;5.94;64.81445;96125.6;;;;
2019/04/20 02:22:49;;;;;;;7.9;5.200001;;;;;;;5.94;64.81445;96125.6;;;;
2019/04/20 02:23:50;;;;;;;7.9;5.200001;;;;;;;5.94;64.81445;96125.6;;;;
2019/04/20 02:24:51;;;;;;;7.9;5.200001;;;;;;;5.94;64.81445;96125.6;;;;
2019/04/20 02:25:52;;;;;;;7.9;5.200001;;;;;;;5.94;64.81445;96125.6;;;;
2019/04/20 02:26:53;;;;;;;7.9;5.200001;;;;;;;5.94;64.81445;96125.6;;;;
2019/04/20 02:27:54;;;;;;;7.9;5.200001;;;;;;;5.94;64.81445;96125.6;;;;
2019/04/20 02:28:55;;;;;;;7.9;5.200001;;;;;;;5.94;64.81445;96125.6;;;;
2019/04/20 02:29:57;;;;;;;7.9;5.200001;;;;;;;5.94;64.81445;96125.6;;;;
2019/04/20 02:30:58;;;;;;;7.9;5.200001;;;;;;;5.94;64.81445;96125.6;;;;
2019/04/20 02:31:59;;;;;;;7.9;5.200001;;;;;;;5.94;64.81445;96125.6;;;;
2019/04/20 02:33:02;;;;;;;6.95;5.05;;;;;;;5.35;63.95313;96130.5;;;;
2019/04/20 02:34:11;;;;;;;6.95;5.05;;;;;;;5.35;63.95313;96130.5;;;;
2019/04/20 02:35:48;;;;;;;6.95;5.05;;;;;;;5.35;63.95313;96130.5;;;;
2019/04/20 02:36:59;;;;;;;6.95;5.05;;;;;;;5.35;63.95313;96130.5;;;;
2019/04/20 02:38:05;;;;;;;6.95;5.05;;;;;;;5.35;63.95313;96130.5;;;;
2019/04/20 02:39:07;;;;;;;6;5.1;;;;;;;5.38;64.77344;96128.39;;;;
2019/04/20 02:40:08;;;;;;;6;5.1;;;;;;;5.38;64.77344;96128.39;;;;
2019/04/20 02:41:09;;;;;;;6.65;4.8;;;;;;;5.41;64.98047;96133.37;;;;
2019/04/20 02:42:10;;;;;;;6.65;4.8;;;;;;;5.41;64.98047;96133.37;;;;
2019/04/20 02:43:11;;;;;;;6.65;4.8;;;;;;;5.41;64.98047;96133.37;;;;
2019/04/20 02:44:12;;;;;;;6.65;4.8;;;;;;;5.41;64.98047;96133.37;;;;
2019/04/20 02:45:13;;;;;;;6.65;4.8;;;;;;;5.41;64.98047;96133.37;;;;
2019/04/20 02:46:14;;;;;;;6.65;4.8;;;;;;;5.41;64.98047;96133.37;;;;
2019/04/20 02:47:15;;;;;;;6.65;4.8;;;;;;;5.41;64.98047;96133.37;;;;
2019/04/20 02:48:16;;;;;;;6.65;4.8;;;;;;;5.41;64.98047;96133.37;;;;
2019/04/20 02:49:18;;;;;;;6.65;4.8;;;;;;;5.41;64.98047;96133.37;;;;
2019/04/20 02:50:19;;;;;;;6.65;4.8;;;;;;;5.41;64.98047;96133.37;;;;
2019/04/20 02:51:20;;;;;;;6.65;4.8;;;;;;;5.41;64.98047;96133.37;;;;
2019/04/20 02:52:21;;;;;;;5.95;4.65;;;;;;;4.96;64.12891;96141.5;;;;
2019/04/20 02:53:22;;;;;;;5.95;4.65;;;;;;;4.96;64.12891;96141.5;;;;
2019/04/20 02:54:23;;;;;;;6.45;5.15;;;;;;;4.93;64.85352;96137.86;;;;
2019/04/20 02:55:24;;;;;;;6.45;5.15;;;;;;;4.93;64.85352;96137.86;;;;
2019/04/20 02:56:25;;;;;;;6.45;5.15;;;;;;;4.93;64.85352;96137.86;;;;
2019/04/20 02:57:26;;;;;;;5.95;5;;;;;;;4.96;65.30469;96133.39;;;;
2019/04/20 02:58:27;;;;;;;5.95;5;;;;;;;4.96;65.30469;96133.39;;;;
2019/04/20 02:59:28;;;;;;;5.95;5;;;;;;;4.96;65.30469;96133.39;;;;
2019/04/20 03:00:29;;;;;;;6.4;5.1;;;;;;;4.99;65.6582;96129.92;;;;
2019/04/20 03:01:30;;;;;;;6.4;5.1;;;;;;;4.99;65.6582;96129.92;;;;
2019/04/20 03:02:31;;;;;;;6.4;5.1;;;;;;;4.99;65.6582;96129.92;;;;
2019/04/20 03:03:33;;;;;;;6.4;5.1;;;;;;;4.99;65.6582;96129.92;;;;
2019/04/20 03:04:34;;;;;;;6.4;5.1;;;;;;;4.99;65.6582;96129.92;;;;
2019/04/20 03:05:35;;;;;;;6.4;5.1;;;;;;;4.99;65.6582;96129.92;;;;
2019/04/20 03:06:36;;;;;;;6.4;5.1;;;;;;;4.99;65.6582;96129.92;;;;
2019/04/20 03:07:37;;;;;;;6.4;5.1;;;;;;;4.99;65.6582;96129.92;;;;
2019/04/20 03:08:38;;;;;;;6.4;5.1;;;;;;;4.99;65.6582;96129.92;;;;
2019/04/20 03:09:39;;;;;;;6.4;5.1;;;;;;;4.99;65.6582;96129.92;;;;
2019/04/20 03:10:40;;;;;;;6.400001;4.65;;;;;;;4.66;64.60254;96128.13;;;;
2019/04/20 03:11:41;;;;;;;6.400001;4.65;;;;;;;4.66;64.60254;96128.13;;;;
2019/04/20 03:12:42;;;;;;;6.400001;4.65;;;;;;;4.66;64.60254;96128.13;;;;
2019/04/20 03:13:43;;;;;;;7.150001;5.25;;;;;;;4.64;65.33984;96127.89;;;;
2019/04/20 03:14:44;;;;;;;7.150001;5.25;;;;;;;4.64;65.33984;96127.89;;;;
2019/04/20 03:15:46;;;;;;;7.150001;5.25;;;;;;;4.64;65.33984;96127.89;;;;
2019/04/20 03:16:47;;;;;;;7.150001;5.25;;;;;;;4.64;65.33984;96127.89;;;;
2019/04/20 03:17:48;;;;;;;7.150001;5.25;;;;;;;4.64;65.33984;96127.89;;;;
2019/04/20 03:18:49;;;;;;;7.150001;5.25;;;;;;;4.64;65.33984;96127.89;;;;
2019/04/20 03:19:50;;;;;;;7.150001;5.25;;;;;;;4.64;65.33984;96127.89;;;;
2019/04/20 03:20:51;;;;;;;7.150001;5.25;;;;;;;4.64;65.33984;96127.89;;;;
2019/04/20 03:21:52;;;;;;;7.150001;5.25;;;;;;;4.64;65.33984;96127.89;;;;
2019/04/20 03:22:53;;;;;;;7.150001;5.25;;;;;;;4.64;65.33984;96127.89;;;;
2019/04/20 03:23:54;;;;;;;5.550001;4.650001;;;;;;;4.4;64.52051;96130.74;;;;
2019/04/20 03:24:58;;;;;;;5.550001;4.650001;;;;;;;4.4;64.52051;96130.74;;;;
2019/04/20 03:26:03;;;;;;;5.550001;4.650001;;;;;;;4.4;64.52051;96130.74;;;;
2019/04/20 03:27:09;;;;;;;6.3;5.35;;;;;;;4.4;65.31348;96123.63;;;;
2019/04/20 03:28:30;;;;;;;6.3;5.35;;;;;;;4.4;65.31348;96123.63;;;;
2019/04/20 03:29:37;;;;;;;6.3;5.35;;;;;;;4.4;65.31348;96123.63;;;;
2019/04/20 03:30:43;;;;;;;6.3;5.35;;;;;;;4.4;65.31348;96123.63;;;;
2019/04/20 03:31:49;;;;;;;6.3;5.35;;;;;;;4.4;65.31348;96123.63;;;;
2019/04/20 03:32:50;;;;;;;6.3;5.35;;;;;;;4.4;65.31348;96123.63;;;;
2019/04/20 03:33:51;;;;;;;6.3;5.35;;;;;;;4.4;65.31348;96123.63;;;;
2019/04/20 03:34:52;;;;;;;6.3;5.35;;;;;;;4.4;65.31348;96123.63;;;;
2019/04/20 03:35:53;;;;;;;6.3;5.35;;;;;;;4.4;65.31348;96123.63;;;;
2019/04/20 03:36:55;;;;;;;7.05;5.400001;;;;;;;4.19;64.55273;96127.34;;;;
2019/04/20 03:37:56;;;;;;;7.05;5.400001;;;;;;;4.19;64.55273;96127.34;;;;
2019/04/20 03:38:57;;;;;;;7.05;5.400001;;;;;;;4.19;64.55273;96127.34;;;;
2019/04/20 03:39:58;;;;;;;8.050001;5.799999;;;;;;;4.21;65.40137;96128.52;;;;
2019/04/20 03:40:59;;;;;;;8.050001;5.799999;;;;;;;4.21;65.40137;96128.52;;;;
2019/04/20 03:42:00;;;;;;;8.050001;5.799999;;;;;;;4.21;65.40137;96128.52;;;;
2019/04/20 03:43:01;;;;;;;8.050001;5.799999;;;;;;;4.21;65.40137;96128.52;;;;
2019/04/20 03:44:02;;;;;;;8.050001;5.799999;;;;;;;4.21;65.40137;96128.52;;;;
2019/04/20 03:45:03;;;;;;;8.050001;5.799999;;;;;;;4.21;65.40137;96128.52;;;;
2019/04/20 03:46:04;;;;;;;8.050001;5.799999;;;;;;;4.21;65.40137;96128.52;;;;
2019/04/20 03:47:05;;;;;;;8.050001;5.799999;;;;;;;4.21;65.40137;96128.52;;;;
2019/04/20 03:48:06;;;;;;;8.050001;5.799999;;;;;;;4.21;65.40137;96128.52;;;;
2019/04/20 03:49:08;;;;;;;8.050001;5.799999;;;;;;;4.21;65.40137;96128.52;;;;
2019/04/20 03:50:09;;;;;;;7.300001;5.3;;;;;;;4.02;64.6543;96130.28;;;;
2019/04/20 03:51:10;;;;;;;7.300001;5.3;;;;;;;4.02;64.6543;96130.28;;;;
2019/04/20 03:52:23;;;;;;;7.300001;5.3;;;;;;;4.02;64.6543;96130.28;;;;
2019/04/20 03:53:45;;;;;;;8.299998;5.55;;;;;;;4.03;65.54297;96135.97;;;;
2019/04/20 03:55:47;;;;;;;8.299998;5.55;;;;;;;4.03;65.54297;96135.97;;;;
2019/04/20 03:56:52;;;;;;;8.299998;5.55;;;;;;;4.03;65.54297;96135.97;;;;
2019/04/20 03:58:05;;;;;;;8.299998;5.55;;;;;;;4.03;65.54297;96135.97;;;;
2019/04/20 03:59:10;;;;;;;8.299998;5.55;;;;;;;4.03;65.54297;96135.97;;;;
2019/04/20 04:01:20;;;;;;;8.299998;5.55;;;;;;;4.03;65.54297;96135.97;;;;
2019/04/20 04:02:29;;;;;;;8.299998;5.55;;;;;;;4.03;65.54297;96135.97;;;;
2019/04/20 04:03:38;;;;;;;9.5;5.950001;;;;;;;3.85;64.84863;96142.07;;;;
2019/04/20 04:04:42;;;;;;;9.5;5.950001;;;;;;;3.85;64.84863;96142.07;;;;
2019/04/20 04:05:50;;;;;;;8.4;6.25;;;;;;;3.86;65.77051;96143.72;;;;
2019/04/20 04:06:51;;;;;;;8.4;6.25;;;;;;;3.86;65.77051;96143.72;;;;
2019/04/20 04:07:52;;;;;;;8.4;6.25;;;;;;;3.86;65.77051;96143.72;;;;
2019/04/20 04:08:53;;;;;;;8.4;6.25;;;;;;;3.86;65.77051;96143.72;;;;
2019/04/20 04:09:54;;;;;;;8.4;6.25;;;;;;;3.86;65.77051;96143.72;;;;
2019/04/20 04:10:55;;;;;;;8.4;6.25;;;;;;;3.86;65.77051;96143.72;;;;
2019/04/20 04:11:56;;;;;;;8.4;6.25;;;;;;;3.86;65.77051;96143.72;;;;
2019/04/20 04:14:08;;;;;;;8.4;6.25;;;;;;;3.86;65.77051;96143.72;;;;
2019/04/20 04:15:09;;;;;;;8.4;6.25;;;;;;;3.86;65.77051;96143.72;;;;
2019/04/20 04:16:10;;;;;;;8.4;6.25;;;;;;;3.86;65.77051;96143.72;;;;
2019/04/20 04:17:11;;;;;;;8.15;6.4;;;;;;;3.71;65.11426;96148.03;;;;
2019/04/20 04:18:12;;;;;;;8.15;6.4;;;;;;;3.71;65.11426;96148.03;;;;
2019/04/20 04:19:14;;;;;;;8.15;6.4;;;;;;;3.71;65.11426;96148.03;;;;
2019/04/20 04:20:15;;;;;;;8.15;6.4;;;;;;;3.71;65.11426;96148.03;;;;
2019/04/20 04:21:16;;;;;;;8.15;6.4;;;;;;;3.71;65.11426;96148.03;;;;
2019/04/20 04:22:17;;;;;;;8.15;6.4;;;;;;;3.71;65.11426;96148.03;;;;
2019/04/20 04:23:18;;;;;;;8.15;6.4;;;;;;;3.71;65.11426;96148.03;;;;
2019/04/20 04:24:19;;;;;;;8.15;6.4;;;;;;;3.71;65.11426;96148.03;;;;
2019/04/20 04:25:20;;;;;;;8.15;6.4;;;;;;;3.71;65.11426;96148.03;;;;
2019/04/20 04:26:22;;;;;;;8.15;6.4;;;;;;;3.71;65.11426;96148.03;;;;
2019/04/20 04:27:23;;;;;;;8.15;6.4;;;;;;;3.71;65.11426;96148.03;;;;
2019/04/20 04:28:24;;;;;;;8.15;6.4;;;;;;;3.71;65.11426;96148.03;;;;
2019/04/20 04:29:25;;;;;;;8.15;6.4;;;;;;;3.71;65.11426;96148.03;;;;
2019/04/20 04:30:26;;;;;;;8.800002;6.249999;;;;;;;3.64;65.25195;96148.39;;;;
2019/04/20 04:31:27;;;;;;;8.800002;6.249999;;;;;;;3.64;65.25195;96148.39;;;;
2019/04/20 04:32:28;;;;;;;8.800002;6.249999;;;;;;;3.64;65.25195;96148.39;;;;
2019/04/20 04:33:29;;;;;;;8.800002;6.249999;;;;;;;3.64;65.25195;96148.39;;;;
2019/04/20 04:34:30;;;;;;;8.800002;6.249999;;;;;;;3.64;65.25195;96148.39;;;;
2019/04/20 04:35:31;;;;;;;8.800002;6.249999;;;;;;;3.64;65.25195;96148.39;;;;
2019/04/20 04:36:32;;;;;;;8.800002;6.249999;;;;;;;3.64;65.25195;96148.39;;;;
2019/04/20 04:37:33;;;;;;;8.800002;6.249999;;;;;;;3.64;65.25195;96148.39;;;;
2019/04/20 04:38:34;;;;;;;8.800002;6.249999;;;;;;;3.64;65.25195;96148.39;;;;
2019/04/20 04:39:35;;;;;;;8.800002;6.249999;;;;;;;3.64;65.25195;96148.39;;;;
2019/04/20 04:40:36;;;;;;;8.800002;6.249999;;;;;;;3.64;65.25195;96148.39;;;;
2019/04/20 04:41:37;;;;;;;8.800002;6.249999;;;;;;;3.64;65.25195;96148.39;;;;
2019/04/20 04:42:39;;;;;;;8.800002;6.249999;;;;;;;3.64;65.25195;96148.39;;;;
2019/04/20 04:43:40;;;;;;;7.650001;6.3;;;;;;;3.74;65.15137;96159.3;;;;
2019/04/20 04:44:41;;;;;;;7.650001;6.3;;;;;;;3.74;65.15137;96159.3;;;;
2019/04/20 04:45:42;;;;;;;8.399999;6.25;;;;;;;3.78;66.04395;96161.94;;;;
2019/04/20 04:46:43;;;;;;;8.399999;6.25;;;;;;;3.78;66.04395;96161.94;;;;
2019/04/20 04:47:44;;;;;;;8.399999;6.25;;;;;;;3.78;66.04395;96161.94;;;;
2019/04/20 04:48:45;;;;;;;8.399999;6.25;;;;;;;3.78;66.04395;96161.94;;;;
2019/04/20 04:49:46;;;;;;;8.399999;6.25;;;;;;;3.78;66.04395;96161.94;;;;
2019/04/20 04:50:47;;;;;;;8.399999;6.25;;;;;;;3.78;66.04395;96161.94;;;;
2019/04/20 04:51:48;;;;;;;8.399999;6.25;;;;;;;3.78;66.04395;96161.94;;;;
2019/04/20 04:52:49;;;;;;;8.399999;6.25;;;;;;;3.78;66.04395;96161.94;;;;
2019/04/20 04:53:50;;;;;;;8.399999;6.25;;;;;;;3.78;66.04395;96161.94;;;;
2019/04/20 04:54:51;;;;;;;8.399999;6.25;;;;;;;3.78;66.04395;96161.94;;;;
2019/04/20 04:55:52;;;;;;;8.399999;6.25;;;;;;;3.78;66.04395;96161.94;;;;
2019/04/20 04:56:54;;;;;;;8.45;5.750001;;;;;;;3.8;65.30762;96166.61;;;;
2019/04/20 04:57:55;;;;;;;8.45;5.750001;;;;;;;3.8;65.30762;96166.61;;;;
2019/04/20 04:58:56;;;;;;;7.45;5.849999;;;;;;;3.85;66.12793;96168.67;;;;
2019/04/20 04:59:57;;;;;;;7.45;5.849999;;;;;;;3.85;66.12793;96168.67;;;;
2019/04/20 05:00:58;;;;;;;7.45;5.849999;;;;;;;3.85;66.12793;96168.67;;;;
2019/04/20 05:01:59;;;;;;;7.45;5.849999;;;;;;;3.85;66.12793;96168.67;;;;
2019/04/20 05:03:03;;;;;;;7.45;5.849999;;;;;;;3.85;66.12793;96168.67;;;;
2019/04/20 05:04:04;;;;;;;7.45;5.849999;;;;;;;3.85;66.12793;96168.67;;;;
2019/04/20 05:05:16;;;;;;;7.45;5.849999;;;;;;;3.85;66.12793;96168.67;;;;
2019/04/20 05:06:19;;;;;;;7.45;5.849999;;;;;;;3.85;66.12793;96168.67;;;;
2019/04/20 05:07:24;;;;;;;7.45;5.849999;;;;;;;3.85;66.12793;96168.67;;;;
2019/04/20 05:08:26;;;;;;;7.45;5.849999;;;;;;;3.85;66.12793;96168.67;;;;
2019/04/20 05:09:27;;;;;;;8.45;6.1;;;;;;;3.94;65.38086;96170.83;;;;
2019/04/20 05:10:28;;;;;;;8.45;6.1;;;;;;;3.94;65.38086;96170.83;;;;
2019/04/20 05:11:29;;;;;;;8.45;6.1;;;;;;;3.94;65.38086;96170.83;;;;
2019/04/20 05:12:30;;;;;;;9.750001;6.849999;;;;;;;4.04;66.18945;96174.11;;;;
2019/04/20 05:13:31;;;;;;;9.750001;6.849999;;;;;;;4.04;66.18945;96174.11;;;;
2019/04/20 05:14:32;;;;;;;9.750001;6.849999;;;;;;;4.04;66.18945;96174.11;;;;
2019/04/20 05:15:33;;;;;;;9.750001;6.849999;;;;;;;4.04;66.18945;96174.11;;;;
2019/04/20 05:16:34;;;;;;;9.750001;6.849999;;;;;;;4.04;66.18945;96174.11;;;;
2019/04/20 05:17:35;;;;;;;9.750001;6.849999;;;;;;;4.04;66.18945;96174.11;;;;
2019/04/20 05:18:36;;;;;;;9.750001;6.849999;;;;;;;4.04;66.18945;96174.11;;;;
2019/04/20 05:19:37;;;;;;;9.750001;6.849999;;;;;;;4.04;66.18945;96174.11;;;;
2019/04/20 05:20:40;;;;;;;9.750001;6.849999;;;;;;;4.04;66.18945;96174.11;;;;
2019/04/20 05:21:50;;;;;;;9.750001;6.849999;;;;;;;4.04;66.18945;96174.11;;;;
2019/04/20 05:22:57;;;;;;;8.299999;7.099999;;;;;;;4.34;65.29492;96176.37;;;;
2019/04/20 05:23:59;;;;;;;8.299999;7.099999;;;;;;;4.34;65.29492;96176.37;;;;
2019/04/20 05:30:12;;;;;;;8.2;6.95;;;;;;;4.5;66.1543;96169.59;;;;
2019/04/20 05:31:13;;;;;;;8.2;6.95;;;;;;;4.5;66.1543;96169.59;;;;
2019/04/20 05:32:14;;;;;;;8.2;6.95;;;;;;;4.5;66.1543;96169.59;;;;
2019/04/20 05:33:15;;;;;;;8.2;6.95;;;;;;;4.5;66.1543;96169.59;;;;
2019/04/20 05:34:16;;;;;;;8.2;6.95;;;;;;;4.5;66.1543;96169.59;;;;
2019/04/20 05:35:17;;;;;;;8.2;6.95;;;;;;;4.5;66.1543;96169.59;;;;
2019/04/20 05:36:18;;;;;;;8.2;6.95;;;;;;;4.5;66.1543;96169.59;;;;
2019/04/20 05:37:19;;;;;;;8.2;6.95;;;;;;;4.5;66.1543;96169.59;;;;
2019/04/20 05:38:20;;;;;;;8.2;6.95;;;;;;;4.5;66.1543;96169.59;;;;
2019/04/20 05:39:21;;;;;;;7.799999;6.849999;;;;;;;5.23;65.94824;96169.45;;;;
2019/04/20 05:40:23;;;;;;;7.799999;6.849999;;;;;;;5.23;65.94824;96169.45;;;;
2019/04/20 05:41:24;;;;;;;7.799999;6.849999;;;;;;;5.23;65.94824;96169.45;;;;
2019/04/20 05:42:29;;;;;;;7.799999;6.849999;;;;;;;5.23;65.94824;96169.45;;;;
2019/04/20 05:43:40;;;;;;;7.799999;6.849999;;;;;;;5.23;65.94824;96169.45;;;;
2019/04/20 05:44:41;;;;;;;7.799999;6.849999;;;;;;;5.23;65.94824;96169.45;;;;
2019/04/20 05:45:42;;;;;;;7.799999;6.849999;;;;;;;5.23;65.94824;96169.45;;;;
2019/04/20 05:46:43;;;;;;;7.799999;6.849999;;;;;;;5.23;65.94824;96169.45;;;;
2019/04/20 05:47:44;;;;;;;7.799999;6.849999;;;;;;;5.23;65.94824;96169.45;;;;
2019/04/20 05:48:45;;;;;;;7.799999;6.849999;;;;;;;5.23;65.94824;96169.45;;;;
2019/04/20 05:49:46;;;;;;;8.15;6.8;;;;;;;5.9;64.60742;96174.3;;;;
2019/04/20 05:50:47;;;;;;;8.15;6.8;;;;;;;5.9;64.60742;96174.3;;;;
2019/04/20 05:51:48;;;;;;;8.15;6.8;;;;;;;5.9;64.60742;96174.3;;;;
2019/04/20 05:52:49;;;;;;;7.25;6.550001;;;;;;;6.14;65.15332;96169.05;;;;
2019/04/20 05:53:50;;;;;;;7.25;6.550001;;;;;;;6.14;65.15332;96169.05;;;;
2019/04/20 05:54:51;;;;;;;7.25;6.550001;;;;;;;6.14;65.15332;96169.05;;;;
2019/04/20 05:55:52;;;;;;;7.25;6.550001;;;;;;;6.14;65.15332;96169.05;;;;
2019/04/20 05:56:54;;;;;;;7.25;6.550001;;;;;;;6.14;65.15332;96169.05;;;;
2019/04/20 05:57:55;;;;;;;7.25;6.550001;;;;;;;6.14;65.15332;96169.05;;;;
2019/04/20 05:58:56;;;;;;;7.25;6.550001;;;;;;;6.14;65.15332;96169.05;;;;
2019/04/20 05:59:57;;;;;;;7.25;6.550001;;;;;;;6.14;65.15332;96169.05;;;;
2019/04/20 06:00:58;;;;;;;7.25;6.550001;;;;;;;6.14;65.15332;96169.05;;;;